Terminal Aerodrome Forecast
Issued by NWS Wakefield, VA

Home | Current Version | Previous Version | Text Only | Print | Product List | Glossary On
Versions: 1 2 3 4 5 6 7 8 9 10 11 12 13 14 15 16 17
000
FTUS41 KAKQ 281842 AAA
TAFRIC
TAF AMD
KRIC 281842Z 2819/2918 16006KT P6SM VCSH SCT025 BKN040 BKN250
     FM282100 17003KT P6SM SCT030 BKN100
     FM290300 17002KT 4SM BR BKN100
     FM291300 19006KT P6SM SCT040 BKN250=

USA.gov is the U.S. government's official web portal to all federal, state and local government web resources and services.